createdAt,value
2023-04-28T00:00:10.464Z,15.44
2023-04-28T00:02:38.854Z,14.41
2023-04-28T00:05:11.287Z,14.66
2023-04-28T00:07:39.672Z,14.65
2023-04-28T00:10:10.851Z,14.44
2023-04-28T00:12:39.323Z,14.19
2023-04-28T00:15:13.897Z,14.00
2023-04-28T00:17:42.271Z,14.04
2023-04-28T00:20:12.033Z,14.05
2023-04-28T00:22:44.786Z,14.13
2023-04-28T00:25:13.199Z,14.44
2023-04-28T00:27:44.039Z,14.07
2023-04-28T00:30:14.145Z,13.93
2023-04-28T00:32:44.857Z,14.14
2023-04-28T00:35:13.212Z,13.79
2023-04-28T00:37:41.635Z,13.83
2023-04-28T00:40:11.395Z,14.03
2023-04-28T00:42:46.259Z,14.06
2023-04-28T00:45:22.368Z,14.19
2023-04-28T00:47:50.775Z,14.61
2023-04-28T00:50:21.752Z,13.90
2023-04-28T00:52:49.857Z,14.39
2023-04-28T00:55:20.011Z,14.42
2023-04-28T00:57:51.558Z,14.71
2023-04-28T01:00:21.492Z,14.68
2023-04-28T01:02:51.015Z,14.71
2023-04-28T01:05:22.551Z,14.21
2023-04-28T01:07:52.066Z,14.36
2023-04-28T01:10:22.088Z,14.46
2023-04-28T01:12:50.315Z,14.39
2023-04-28T01:15:24.861Z,14.74
2023-04-28T01:17:53.908Z,14.73
2023-04-28T01:20:21.987Z,14.85
2023-04-28T01:22:50.365Z,13.95
2023-04-28T01:25:26.682Z,14.09
2023-04-28T01:27:59.872Z,14.75
2023-04-28T01:30:30.196Z,14.15
2023-04-28T01:33:03.614Z,14.02
2023-04-28T01:35:32.155Z,13.96
2023-04-28T01:37:59.913Z,13.34
2023-04-28T01:40:30.050Z,13.57
2023-04-28T01:43:01.474Z,14.19
2023-04-28T01:45:30.876Z,14.04
2023-04-28T01:48:00.770Z,14.10
2023-04-28T01:50:28.934Z,13.94
2023-04-28T01:52:59.386Z,14.01
2023-04-28T01:55:30.231Z,14.32
2023-04-28T01:57:58.633Z,13.98
2023-04-28T02:00:27.540Z,13.86
2023-04-28T02:02:55.602Z,14.01
2023-04-28T02:05:30.044Z,14.25
2023-04-28T02:08:02.570Z,13.77
2023-04-28T02:10:34.920Z,14.26
2023-04-28T02:13:03.447Z,14.04
2023-04-28T02:15:31.515Z,14.13
2023-04-28T02:18:01.942Z,14.55
2023-04-28T02:20:31.900Z,14.55
2023-04-28T02:23:11.346Z,14.06
2023-04-28T02:25:42.809Z,14.11
2023-04-28T02:28:13.445Z,13.97
2023-04-28T02:30:41.731Z,14.01
2023-04-28T02:33:12.146Z,14.28
2023-04-28T02:35:39.963Z,14.81
2023-04-28T02:38:08.211Z,14.98
2023-04-28T02:40:38.342Z,14.99
2023-04-28T02:43:08.343Z,14.95
2023-04-28T02:45:36.763Z,14.64
2023-04-28T02:48:05.541Z,14.93
2023-04-28T02:50:36.673Z,14.48
2023-04-28T02:53:04.828Z,13.97
2023-04-28T02:55:36.693Z,13.97
2023-04-28T02:58:05.069Z,14.15
2023-04-28T03:00:35.776Z,14.69
2023-04-28T03:03:06.620Z,14.84
2023-04-28T03:05:35.452Z,15.03
2023-04-28T03:08:03.553Z,15.19
2023-04-28T03:10:31.540Z,15.40
2023-04-28T03:13:01.466Z,15.62
2023-04-28T03:15:30.089Z,15.30
2023-04-28T03:17:59.479Z,15.36
2023-04-28T03:20:28.755Z,15.31
2023-04-28T03:22:57.063Z,15.30
2023-04-28T03:25:27.976Z,15.27
2023-04-28T03:27:56.236Z,15.03
2023-04-28T03:30:25.998Z,14.77
2023-04-28T03:32:56.665Z,14.46
2023-04-28T03:35:32.527Z,14.37
2023-04-28T03:38:01.093Z,13.98
2023-04-28T03:40:29.460Z,14.73
2023-04-28T03:42:59.276Z,14.77
2023-04-28T03:45:27.886Z,15.48
2023-04-28T03:47:59.039Z,15.36
2023-04-28T03:50:31.395Z,15.51
2023-04-28T03:53:04.480Z,15.21
2023-04-28T03:55:33.004Z,14.63
2023-04-28T03:58:01.772Z,14.98
2023-04-28T04:00:30.127Z,14.77
2023-04-28T04:02:58.516Z,15.20
2023-04-28T04:05:28.914Z,15.04
2023-04-28T04:07:58.692Z,15.76
2023-04-28T04:10:26.686Z,15.71
2023-04-28T04:12:54.865Z,15.61
2023-04-28T04:15:23.468Z,15.32
2023-04-28T04:17:52.083Z,15.26
2023-04-28T04:20:20.239Z,15.78
2023-04-28T04:22:48.140Z,15.63
2023-04-28T04:25:22.773Z,15.88
2023-04-28T04:27:59.599Z,16.02
2023-04-28T04:30:32.867Z,16.09
2023-04-28T04:33:03.789Z,16.12
2023-04-28T04:35:32.381Z,16.35
2023-04-28T04:38:01.627Z,16.25
2023-04-28T04:40:32.280Z,16.42
2023-04-28T04:43:00.717Z,16.61
2023-04-28T04:45:29.043Z,15.93
2023-04-28T04:48:00.507Z,15.85
2023-04-28T04:50:29.040Z,15.91
2023-04-28T04:53:00.725Z,15.36
2023-04-28T04:55:41.795Z,16.02
2023-04-28T04:58:09.691Z,15.79
2023-04-28T05:00:38.679Z,15.87
2023-04-28T05:03:07.908Z,15.76
2023-04-28T05:05:40.530Z,15.85
2023-04-28T05:08:15.681Z,16.11
2023-04-28T05:10:48.570Z,15.99
2023-04-28T05:13:21.178Z,16.00
2023-04-28T05:15:48.916Z,15.76
2023-04-28T05:18:19.469Z,15.14
2023-04-28T05:20:49.015Z,15.02
2023-04-28T05:23:20.676Z,15.52
2023-04-28T05:25:53.684Z,15.51
2023-04-28T05:28:22.279Z,15.28
2023-04-28T05:30:52.130Z,15.38
2023-04-28T05:33:20.314Z,15.13
2023-04-28T05:35:49.173Z,15.45
2023-04-28T05:38:17.164Z,15.04
2023-04-28T05:40:46.663Z,14.93
2023-04-28T05:43:18.879Z,15.22
2023-04-28T05:45:47.314Z,14.63
2023-04-28T05:48:16.508Z,15.08
2023-04-28T05:50:44.608Z,14.87
2023-04-28T05:53:12.446Z,15.02
2023-04-28T05:55:43.251Z,14.93
2023-04-28T05:58:11.731Z,14.93
2023-04-28T06:00:43.960Z,14.15
2023-04-28T06:03:14.915Z,13.83
2023-04-28T06:05:46.252Z,13.86
2023-04-28T06:08:14.804Z,14.26
2023-04-28T06:10:46.103Z,14.56
2023-04-28T06:13:17.140Z,14.13
2023-04-28T06:15:48.638Z,14.12
2023-04-28T06:18:19.282Z,14.27
2023-04-28T06:20:48.814Z,14.42
2023-04-28T06:23:20.699Z,14.47
2023-04-28T06:25:49.293Z,14.46
2023-04-28T06:28:22.518Z,14.61
2023-04-28T06:30:53.017Z,14.52
2023-04-28T06:33:22.388Z,14.36
2023-04-28T06:35:53.451Z,14.50
2023-04-28T06:38:24.735Z,14.90
2023-04-28T06:40:55.961Z,14.77
2023-04-28T06:43:24.279Z,14.48
2023-04-28T06:45:54.457Z,14.59
2023-04-28T06:48:25.468Z,14.37
2023-04-28T06:50:53.534Z,14.89
2023-04-28T06:53:22.675Z,14.74
2023-04-28T06:55:54.963Z,14.71
2023-04-28T06:58:23.699Z,14.88
2023-04-28T07:01:06.155Z,15.15
2023-04-28T07:03:35.074Z,14.64
2023-04-28T07:06:03.540Z,14.75
2023-04-28T07:08:37.815Z,14.36
2023-04-28T07:11:07.307Z,15.05
2023-04-28T07:13:36.268Z,14.94
2023-04-28T07:16:06.604Z,15.56
2023-04-28T07:18:38.970Z,14.89
2023-04-28T07:21:08.111Z,14.81
2023-04-28T07:23:38.680Z,14.85
2023-04-28T07:26:10.275Z,14.58
2023-04-28T07:28:38.760Z,15.05
2023-04-28T07:31:23.277Z,14.89
2023-04-28T07:33:55.340Z,15.02
2023-04-28T07:36:24.173Z,15.55
2023-04-28T07:38:55.503Z,15.17
2023-04-28T07:41:24.241Z,14.63
2023-04-28T07:43:52.990Z,14.76
2023-04-28T07:46:23.866Z,14.72
2023-04-28T07:48:55.087Z,14.79
2023-04-28T07:51:23.145Z,14.55
2023-04-28T07:53:51.633Z,15.02
2023-04-28T07:56:26.893Z,14.86
2023-04-28T07:58:55.416Z,15.24
2023-04-28T08:01:26.648Z,15.06
2023-04-28T08:03:55.164Z,14.78
2023-04-28T08:06:26.306Z,14.81
2023-04-28T08:08:56.686Z,14.01
2023-04-28T08:11:26.558Z,14.57
2023-04-28T08:13:57.769Z,14.75
2023-04-28T08:16:30.808Z,14.34
2023-04-28T08:18:59.331Z,14.53
2023-04-28T08:21:28.002Z,15.05
2023-04-28T08:23:56.553Z,15.22
2023-04-28T08:26:24.845Z,15.09
2023-04-28T08:28:52.926Z,15.27
2023-04-28T08:31:24.270Z,15.66
2023-04-28T08:33:55.621Z,16.16
2023-04-28T08:36:31.852Z,16.34
2023-04-28T08:39:03.970Z,16.37
2023-04-28T08:41:34.606Z,16.74
2023-04-28T08:44:02.461Z,16.91
2023-04-28T08:46:37.149Z,17.24
2023-04-28T08:49:09.350Z,16.82
2023-04-28T08:51:42.757Z,16.55
2023-04-28T08:54:29.767Z,17.01
2023-04-28T08:56:59.173Z,17.03
2023-04-28T08:59:30.705Z,17.14
2023-04-28T09:02:01.327Z,16.71
2023-04-28T09:04:32.838Z,15.00
2023-04-28T09:07:01.227Z,15.56
2023-04-28T09:09:37.129Z,16.05
2023-04-28T09:12:14.487Z,15.79
2023-04-28T09:14:45.711Z,15.88
2023-04-28T09:17:16.624Z,16.26
2023-04-28T09:19:46.647Z,16.01
2023-04-28T09:22:26.890Z,15.88
2023-04-28T09:24:57.539Z,15.89
2023-04-28T09:27:34.451Z,15.67
2023-04-28T09:30:06.082Z,15.75
2023-04-28T09:32:39.260Z,16.11
2023-04-28T09:35:12.888Z,16.82
2023-04-28T09:37:43.375Z,16.74
2023-04-28T09:40:14.500Z,15.48
2023-04-28T09:42:43.858Z,16.56
2023-04-28T09:45:15.372Z,16.72
2023-04-28T09:47:47.244Z,16.98
2023-04-28T09:50:18.900Z,17.39
2023-04-28T09:52:57.932Z,17.69
2023-04-28T09:55:28.706Z,17.79
2023-04-28T09:57:57.556Z,17.51
2023-04-28T10:00:29.222Z,17.46
2023-04-28T10:03:00.645Z,17.38
2023-04-28T10:05:33.297Z,17.53
2023-04-28T10:08:03.203Z,17.08
2023-04-28T10:10:31.513Z,17.00
2023-04-28T10:13:01.470Z,16.57
2023-04-28T10:15:29.544Z,16.78
2023-04-28T10:18:02.673Z,17.08
2023-04-28T10:20:35.174Z,17.18
2023-04-28T10:23:12.967Z,16.90
2023-04-28T10:25:41.703Z,16.63
2023-04-28T10:28:21.126Z,16.77
2023-04-28T10:31:13.303Z,17.06
2023-04-28T10:33:44.675Z,17.04
2023-04-28T10:36:51.208Z,17.63
2023-04-28T10:39:24.315Z,17.31
2023-04-28T10:41:55.951Z,17.59
2023-04-28T10:44:46.152Z,17.75
2023-04-28T10:47:14.364Z,17.63
2023-04-28T10:50:11.318Z,17.14
2023-04-28T10:52:59.208Z,17.39
2023-04-28T10:55:33.449Z,17.62
2023-04-28T10:58:37.600Z,17.81
2023-04-28T11:01:32.542Z,17.29
2023-04-28T11:04:04.138Z,17.59
2023-04-28T11:06:37.018Z,17.51
2023-04-28T11:09:51.781Z,17.85
2023-04-28T11:12:22.225Z,18.12
2023-04-28T11:14:51.017Z,18.12
2023-04-28T11:17:41.459Z,18.32
2023-04-28T11:20:18.275Z,17.96
2023-04-28T11:22:54.073Z,17.86
2023-04-28T11:25:22.849Z,18.15
2023-04-28T11:28:11.220Z,18.27
2023-04-28T11:30:40.374Z,18.33
2023-04-28T11:33:10.182Z,18.28
2023-04-28T11:35:42.940Z,18.25
2023-04-28T11:38:11.334Z,18.82
2023-04-28T11:40:41.425Z,17.99
2023-04-28T11:43:10.832Z,18.18
2023-04-28T11:45:39.019Z,18.35
2023-04-28T11:48:24.738Z,17.98
2023-04-28T11:50:55.109Z,18.64
2023-04-28T11:53:44.397Z,18.43
2023-04-28T11:56:13.717Z,18.26
2023-04-28T11:58:46.850Z,18.02
2023-04-28T12:01:20.709Z,18.32
2023-04-28T12:03:50.251Z,18.90
2023-04-28T12:06:20.671Z,19.22
2023-04-28T12:08:48.609Z,19.06
2023-04-28T12:11:19.959Z,19.22
2023-04-28T12:14:08.623Z,18.89
2023-04-28T12:16:49.440Z,18.37
2023-04-28T12:19:17.999Z,18.38
2023-04-28T12:22:01.728Z,18.75
2023-04-28T12:24:31.619Z,18.84
2023-04-28T12:27:24.012Z,17.56
2023-04-28T12:29:58.447Z,19.05
2023-04-28T12:32:40.433Z,19.07
2023-04-28T12:35:09.653Z,18.90
2023-04-28T12:37:41.948Z,19.56
2023-04-28T12:40:14.821Z,19.37
2023-04-28T12:42:45.310Z,19.36
2023-04-28T12:45:16.697Z,19.69
2023-04-28T12:47:47.646Z,19.24
2023-04-28T12:50:16.083Z,19.60
2023-04-28T12:52:54.256Z,19.82
2023-04-28T12:55:24.652Z,19.88
2023-04-28T12:57:56.793Z,19.67
2023-04-28T13:00:26.781Z,19.67
2023-04-28T13:02:59.267Z,20.13
2023-04-28T13:05:27.946Z,20.08
2023-04-28T13:07:55.822Z,20.14
2023-04-28T13:10:29.839Z,20.21
2023-04-28T13:13:00.416Z,20.23
2023-04-28T13:15:33.258Z,20.15
2023-04-28T13:18:01.641Z,20.25
2023-04-28T13:20:29.564Z,20.49
2023-04-28T13:23:00.058Z,19.88
2023-04-28T13:25:28.177Z,19.68
2023-04-28T13:27:59.383Z,19.09
2023-04-28T13:30:35.569Z,19.38
2023-04-28T13:33:03.758Z,19.79
2023-04-28T13:35:34.501Z,19.80
2023-04-28T13:38:08.429Z,19.28
2023-04-28T13:40:37.100Z,18.90
2023-04-28T13:43:08.033Z,18.80
2023-04-28T13:45:39.236Z,19.10
2023-04-28T13:48:12.490Z,19.42
2023-04-28T13:50:40.572Z,19.12
2023-04-28T13:53:17.513Z,19.14
2023-04-28T13:55:45.499Z,19.44
2023-04-28T13:58:14.734Z,19.70
2023-04-28T14:00:46.712Z,20.03
2023-04-28T14:03:16.676Z,20.58
2023-04-28T14:05:49.689Z,19.74
2023-04-28T14:08:19.435Z,19.61
2023-04-28T14:10:48.684Z,19.83
2023-04-28T14:13:31.049Z,19.58
2023-04-28T14:16:00.909Z,18.76
2023-04-28T14:18:35.463Z,18.80
2023-04-28T14:21:08.211Z,18.12
2023-04-28T14:23:38.517Z,17.95
2023-04-28T14:26:09.151Z,18.22
2023-04-28T14:28:38.103Z,18.54
2023-04-28T14:31:12.672Z,18.09
2023-04-28T14:33:43.490Z,18.01
2023-04-28T14:36:11.552Z,18.37
2023-04-28T14:38:40.385Z,18.40
2023-04-28T14:41:11.948Z,18.57
2023-04-28T14:43:40.348Z,18.93
2023-04-28T14:46:12.531Z,18.61
2023-04-28T14:48:40.974Z,18.17
2023-04-28T14:51:09.528Z,18.36
2023-04-28T14:53:37.854Z,18.66
2023-04-28T14:56:17.903Z,18.65
2023-04-28T15:01:32.464Z,19.06
2023-04-28T15:04:01.372Z,19.34
2023-04-28T15:06:35.199Z,19.05
2023-04-28T15:09:03.641Z,18.80
2023-04-28T15:11:31.975Z,18.08
2023-04-28T15:14:01.410Z,18.65
2023-04-28T15:16:32.539Z,18.58
2023-04-28T15:19:05.335Z,18.71
2023-04-28T15:21:35.972Z,18.44
2023-04-28T15:24:06.682Z,17.92
2023-04-28T15:26:35.413Z,17.98
2023-04-28T15:29:04.812Z,17.59
2023-04-28T15:31:35.067Z,17.79
2023-04-28T15:34:07.850Z,18.03
2023-04-28T15:36:39.096Z,18.17
2023-04-28T15:39:07.614Z,17.78
2023-04-28T15:41:38.136Z,17.57
2023-04-28T15:44:07.386Z,17.80
2023-04-28T15:46:38.050Z,17.96
2023-04-28T15:49:09.363Z,18.05
2023-04-28T15:51:38.325Z,17.26
2023-04-28T15:54:08.364Z,17.52
2023-04-28T15:56:42.099Z,17.56
2023-04-28T15:59:15.163Z,17.44
2023-04-28T16:01:43.588Z,17.60
2023-04-28T16:04:18.384Z,17.60
2023-04-28T16:06:46.595Z,17.56
2023-04-28T16:09:17.703Z,17.16
2023-04-28T16:11:48.713Z,15.30
2023-04-28T16:14:18.424Z,17.07
2023-04-28T16:16:46.644Z,17.08
2023-04-28T16:19:16.595Z,16.14
2023-04-28T16:21:44.617Z,17.27
2023-04-28T16:24:13.195Z,17.48
2023-04-28T16:26:44.814Z,17.02
2023-04-28T16:29:14.737Z,17.61
2023-04-28T16:31:43.200Z,17.17
2023-04-28T16:34:13.626Z,17.18
2023-04-28T16:36:45.609Z,17.16
2023-04-28T16:39:14.023Z,16.87
2023-04-28T16:41:42.303Z,16.96
2023-04-28T16:44:22.183Z,17.31
2023-04-28T16:46:50.638Z,17.27
2023-04-28T16:49:20.954Z,17.11
2023-04-28T16:52:05.317Z,16.93
2023-04-28T16:54:52.919Z,16.83
2023-04-28T16:57:26.659Z,16.80
2023-04-28T16:59:59.084Z,17.15
2023-04-28T17:02:29.133Z,17.01
2023-04-28T17:04:57.251Z,16.94
2023-04-28T17:07:29.700Z,17.31
2023-04-28T17:09:59.861Z,17.42
2023-04-28T17:12:33.486Z,17.55
2023-04-28T17:15:01.415Z,17.64
2023-04-28T17:17:30.310Z,18.09
2023-04-28T17:20:02.351Z,18.23
2023-04-28T17:22:37.673Z,18.04
2023-04-28T17:25:16.047Z,17.73
2023-04-28T17:27:44.083Z,18.31
2023-04-28T17:30:14.474Z,17.95
2023-04-28T17:32:43.197Z,17.48
2023-04-28T17:35:13.991Z,17.45
2023-04-28T17:37:49.919Z,17.02
2023-04-28T17:40:20.520Z,17.43
2023-04-28T17:42:49.285Z,17.36
2023-04-28T17:45:17.423Z,16.92
2023-04-28T17:47:48.200Z,17.30
2023-04-28T17:50:16.162Z,17.42
2023-04-28T17:52:44.242Z,17.83
2023-04-28T17:55:13.845Z,18.07
2023-04-28T17:57:46.461Z,17.99
2023-04-28T18:00:18.183Z,17.49
2023-04-28T18:02:48.227Z,17.34
2023-04-28T18:05:17.479Z,17.65
2023-04-28T18:07:50.308Z,17.78
2023-04-28T18:10:21.070Z,18.27
2023-04-28T18:12:50.974Z,18.16
2023-04-28T18:15:20.650Z,17.63
2023-04-28T18:17:51.807Z,17.85
2023-04-28T18:20:20.698Z,17.81
2023-04-28T18:22:51.006Z,17.65
2023-04-28T18:25:21.017Z,16.94
2023-04-28T18:27:51.451Z,17.10
2023-04-28T18:30:24.424Z,17.37
2023-04-28T18:32:52.254Z,17.40
2023-04-28T18:35:27.291Z,16.84
2023-04-28T18:37:57.870Z,16.65
2023-04-28T18:40:33.919Z,16.61
2023-04-28T18:43:07.792Z,16.66
2023-04-28T18:45:41.317Z,16.72
2023-04-28T18:48:16.304Z,16.52
2023-04-28T18:50:54.963Z,16.62
2023-04-28T18:53:24.122Z,16.76
2023-04-28T18:55:58.611Z,16.44
2023-04-28T18:58:37.717Z,16.67
2023-04-28T19:01:12.604Z,16.90
2023-04-28T19:03:43.909Z,16.90
2023-04-28T19:06:27.931Z,16.91
2023-04-28T19:08:59.828Z,17.10
2023-04-28T19:11:30.747Z,16.66
2023-04-28T19:14:07.902Z,16.91
2023-04-28T19:16:35.814Z,16.63
2023-04-28T19:19:09.608Z,16.46
2023-04-28T19:21:45.131Z,16.60
2023-04-28T19:24:15.504Z,16.83
2023-04-28T19:26:47.192Z,16.18
2023-04-28T19:29:19.292Z,16.25
2023-04-28T19:31:50.985Z,16.12
2023-04-28T19:34:19.436Z,16.10
2023-04-28T19:36:47.460Z,16.24
2023-04-28T19:39:17.991Z,16.42
2023-04-28T19:41:48.458Z,16.20
2023-04-28T19:44:20.449Z,16.66
2023-04-28T19:46:50.754Z,16.66
2023-04-28T19:49:19.419Z,16.34
2023-04-28T19:51:54.280Z,16.65
2023-04-28T19:54:23.568Z,16.33
2023-04-28T19:56:57.615Z,16.05
2023-04-28T19:59:27.569Z,16.36
2023-04-28T20:02:09.014Z,16.13
2023-04-28T20:04:40.534Z,15.68
2023-04-28T20:07:12.037Z,15.85
2023-04-28T20:09:40.476Z,15.81
2023-04-28T20:12:11.669Z,16.12
2023-04-28T20:14:40.157Z,15.98
2023-04-28T20:17:10.341Z,15.98
2023-04-28T20:19:40.660Z,16.20
2023-04-28T20:22:09.027Z,15.57
2023-04-28T20:24:37.497Z,16.01
2023-04-28T20:27:14.673Z,15.94
2023-04-28T20:29:44.314Z,16.53
2023-04-28T20:32:14.637Z,16.26
2023-04-28T20:34:46.056Z,16.34
2023-04-28T20:37:16.282Z,15.98
2023-04-28T20:39:44.763Z,16.15
2023-04-28T20:42:12.747Z,16.02
2023-04-28T20:44:41.055Z,16.07
2023-04-28T20:47:10.924Z,15.90
2023-04-28T20:49:39.485Z,16.07
2023-04-28T20:52:07.817Z,16.27
2023-04-28T20:54:36.479Z,16.32
2023-04-28T20:57:15.955Z,15.98
2023-04-28T20:59:44.510Z,16.14
2023-04-28T21:02:15.554Z,16.12
2023-04-28T21:04:43.370Z,15.86
2023-04-28T21:07:12.993Z,15.66
2023-04-28T21:09:42.538Z,16.14
2023-04-28T21:12:13.053Z,16.17
2023-04-28T21:14:40.868Z,16.26
2023-04-28T21:17:12.519Z,16.58
2023-04-28T21:19:42.595Z,16.29
2023-04-28T21:22:14.896Z,16.12
2023-04-28T21:24:43.109Z,16.22
2023-04-28T21:27:15.257Z,16.57
2023-04-28T21:29:44.541Z,16.59
2023-04-28T21:32:13.147Z,16.40
2023-04-28T21:34:43.853Z,16.38
2023-04-28T21:37:11.712Z,16.77
2023-04-28T21:39:40.625Z,16.63
2023-04-28T21:42:09.362Z,16.62
2023-04-28T21:44:40.394Z,16.74
2023-04-28T21:47:09.207Z,16.52
2023-04-28T21:49:37.506Z,16.46
2023-04-28T21:52:06.997Z,16.79
2023-04-28T21:54:39.084Z,16.65
2023-04-28T21:57:06.901Z,16.33
2023-04-28T21:59:37.506Z,16.28
2023-04-28T22:02:07.982Z,16.41
2023-04-28T22:04:37.227Z,16.48
2023-04-28T22:07:10.044Z,16.74
2023-04-28T22:09:41.545Z,16.73
2023-04-28T22:12:09.279Z,16.96
2023-04-28T22:14:41.005Z,16.92
2023-04-28T22:17:10.202Z,16.96
2023-04-28T22:19:38.233Z,17.12
2023-04-28T22:22:07.731Z,17.10
2023-04-28T22:24:35.519Z,16.71
2023-04-28T22:27:06.428Z,16.40
2023-04-28T22:29:34.939Z,16.87
2023-04-28T22:32:10.076Z,16.70
2023-04-28T22:34:38.536Z,16.69
2023-04-28T22:37:09.459Z,15.28
2023-04-28T22:39:39.828Z,17.28
2023-04-28T22:42:11.233Z,17.14
2023-04-28T22:44:39.645Z,16.79
2023-04-28T22:47:10.533Z,16.91
2023-04-28T22:49:38.617Z,16.64
2023-04-28T22:52:11.101Z,16.67
2023-04-28T22:54:39.728Z,16.74
2023-04-28T22:57:08.085Z,16.77
2023-04-28T22:59:36.136Z,16.70
2023-04-28T23:02:05.017Z,16.72
2023-04-28T23:04:34.919Z,17.27
2023-04-28T23:07:05.949Z,17.14
2023-04-28T23:09:37.200Z,17.22
2023-04-28T23:12:10.614Z,17.16
2023-04-28T23:14:38.557Z,17.43
2023-04-28T23:17:06.544Z,17.37
2023-04-28T23:19:35.701Z,17.36
2023-04-28T23:22:06.446Z,17.13
2023-04-28T23:24:37.449Z,17.22
2023-04-28T23:27:09.486Z,16.67
2023-04-28T23:29:37.793Z,17.25
2023-04-28T23:32:07.624Z,16.82
2023-04-28T23:34:38.387Z,17.11
2023-04-28T23:37:06.729Z,16.92
2023-04-28T23:39:36.106Z,16.64
2023-04-28T23:42:05.839Z,16.66
2023-04-28T23:44:34.331Z,16.39
2023-04-28T23:47:02.717Z,16.59
2023-04-28T23:49:31.068Z,16.65
2023-04-28T23:52:05.889Z,16.66
2023-04-28T23:54:42.669Z,17.03
2023-04-28T23:57:10.505Z,16.85
2023-04-28T23:59:38.318Z,16.43
